Huvudsida
METAR-TAF:

METAR-TAF

Flygplatser :

Perpignan, Frankrike

latitud: 42-44N, longitud: 002-52E, höjd: 43 m

Aktuellt väderrapport

Denna rapport gjordes för 19 minuter sedan, klockan 04:30 UTC
Vind 7 kt varierande vindriktning
Temperatur 22°C
Fuktighet 57%
Tryck 1020 hPa
Sikt 10 km eller mer
Inga moln under 1 500 m eller inga cumulonimbus

METAR: LFMP 230430Z AUTO VRB07KT CAVOK 22/13 Q1020 NOSIG

Tid: 06:49 (04:49 UTC)

Väderprognos

Denna rapport gjordes för 2 timmar och 49 minuter sedan, klockan 02:00 UTC
Prognos gäller från 23 kl. 03 UTC till 24 kl. 03 UTC
Vind 12 kt från nordväst
Sikt 10 km eller mer
Inga moln under 1 500 m eller inga cumulonimbus
Blir
från 23 kl. 13 UTC till 23 kl. 15 UTC
Vind 15 kt från nord/nordväst i byarna ända upp till 25 kt
Blir
från 23 kl. 19 UTC till 23 kl. 21 UTC
Vind 7 kt från nordväst

TAF: LFMP 230200Z 2303/2403 31012KT CAVOK BECMG 2313/2315 33015G25KT BECMG 2319/2321 32007KT

Aktuella väderrapporter och prognoser från 4000 flygplatser (METAR- och TAF-rapporter).

De tillgängliga stationerna syns som gula och röda prickar på kartan.

För musen över prickarna för att se namnen på stationerna.

Klicka sedan för att få väderrapporter och prognoser.

För att ändra kartan: Klicka på de gröna knapparna med ett svart kors på för att zooma in; den gröna knappen med ett streck på för att zooma ut; eller på de gröna pilarna för angränsande kartor.


METAR-TAF: